WMKP/PEN METAR and TAF weather

Enter ICAO airport designator
Station Type Date Time Source
WMKP METAR 2019/05/19 20:30 UTC NOAA

WMKP 192030Z VRB01KT 7000 FEW025 SCT140 BKN260 27/26 Q1009 NOSIG


Station Type Date Time Source
WMKP Decoded METAR 2019/05/19 20:30 UTC NOAA

Penang / Bayan Lepas, Malaysia (WMKP) 05-18N 100-16E 4M
May 19, 2019 - 04:30 PM EDT / 2019.05.19 2030 UTC
Wind: Variable at 1 MPH (1 KT):0
Visibility: 4 mile(s):0
Sky conditions: mostly cloudy
Temperature: 80 F (27 C)
Dew Point: 78 F (26 C)
Relative Humidity: 94%
Pressure (altimeter): 29.80 in. Hg (1009 hPa)
ob: WMKP 192030Z VRB01KT 7000 FEW025 SCT140 BKN260 27/26 Q1009 NOSIG
cycle: 20

Station Type Date Time Source
WMKP TAF 2019/05/19 18:09 UTC NOAA

TAF WMKP 191700Z 1918/2018 VRB03KT 8000 FEW025
TEMPO 1920/2000 5000 TSRA FEW010 FEW017CB
BECMG 2004/2006 24010KT FEW020
TEMPO 2006/2010 6000 -TSRA FEW012 FEW017CB
BECMG 2010/2012 VRB03KT FEW025

Example: see airport list